Time;durP1;ratioP1;P1;durP2;ratioP2;P2;SDS_P1;SDS_P2;PMS_P1;PMS_P2;Temp;Humidity;BMP_temperature;BMP_pressure;BME280_temperature;BME280_humidity;BME280_pressure;Samples;Min_cycle;Max_cycle;Signal;HPM_P1;HPM_P2
2023/05/26 00:01:52;;;;;;;25.48;4.95;;;7.80;99.90;;;;;;5098985;28;20067;-70
2023/05/26 00:04:18;;;;;;;33.47;5.53;;;7.80;99.90;;;;;;5100222;28;20089;-71
2023/05/26 00:06:52;;;;;;;31.90;5.60;;;7.80;99.90;;;;;;5101675;28;20497;-73
2023/05/26 00:09:21;;;;;;;30.58;5.30;;;7.80;99.90;;;;;;5095265;28;20574;-71
2023/05/26 00:11:47;;;;;;;34.47;5.70;;;7.80;99.90;;;;;;5098797;28;20043;-72
2023/05/26 00:14:16;;;;;;;29.40;5.13;;;7.80;99.90;;;;;;5098728;28;20105;-72
2023/05/26 00:16:43;;;;;;;30.73;5.10;;;7.80;99.90;;;;;;5098677;28;20040;-69
2023/05/26 00:19:09;;;;;;;30.95;5.10;;;7.90;99.90;;;;;;5090263;28;20135;-73
2023/05/26 00:21:39;;;;;;;29.45;5.82;;;7.70;99.90;;;;;;5099448;28;20127;-70
2023/05/26 00:24:05;;;;;;;29.80;5.38;;;7.70;99.90;;;;;;5101898;28;20101;-69
2023/05/26 00:26:31;;;;;;;31.52;5.53;;;7.70;99.90;;;;;;5101770;28;20047;-70
2023/05/26 00:28:57;;;;;;;26.27;4.75;;;7.70;99.90;;;;;;5089558;28;20050;-71
2023/05/26 00:31:22;;;;;;;32.40;5.35;;;7.70;99.90;;;;;;5101610;28;20074;-71
2023/05/26 00:33:48;;;;;;;19.67;4.63;;;7.70;99.90;;;;;;5100160;28;20089;-70
2023/05/26 00:36:14;;;;;;;30.33;5.72;;;7.70;99.90;;;;;;5079872;28;20044;-70
2023/05/26 00:38:39;;;;;;;30.38;4.88;;;7.70;99.90;;;;;;5075140;28;20089;-74
2023/05/26 00:41:05;;;;;;;29.83;5.43;;;7.60;99.90;;;;;;5098506;28;20048;-70
2023/05/26 00:43:31;;;;;;;23.92;4.85;;;7.60;99.90;;;;;;5098537;28;20036;-70
2023/05/26 00:45:56;;;;;;;24.00;4.68;;;7.60;99.90;;;;;;5098968;28;20144;-71
2023/05/26 00:48:22;;;;;;;31.73;4.97;;;7.60;99.90;;;;;;5100283;28;20035;-71
2023/05/26 00:50:47;;;;;;;23.95;4.65;;;7.60;99.90;;;;;;5097181;28;20096;-70
2023/05/26 00:53:15;;;;;;;20.73;3.83;;;7.50;99.90;;;;;;5098726;28;20116;-70
2023/05/26 00:55:41;;;;;;;30.58;5.97;;;7.50;99.90;;;;;;5098368;28;20177;-71
2023/05/26 00:58:07;;;;;;;24.33;4.65;;;7.70;99.90;;;;;;5097871;28;20127;-69
2023/05/26 01:00:33;;;;;;;25.30;4.40;;;7.40;99.90;;;;;;5098884;28;20543;-71
2023/05/26 01:02:59;;;;;;;39.17;5.60;;;7.40;99.90;;;;;;5098583;28;20075;-72
2023/05/26 01:05:25;;;;;;;27.23;5.00;;;7.80;99.90;;;;;;5100745;28;20082;-70
2023/05/26 01:07:50;;;;;;;31.52;5.20;;;7.60;99.90;;;;;;5101013;28;20074;-73
2023/05/26 01:10:16;;;;;;;28.63;4.97;;;7.40;99.90;;;;;;5091148;28;20052;-71
2023/05/26 01:13:01;;;;;;;25.85;5.10;;;7.40;99.90;;;;;;5101709;28;20043;-71
2023/05/26 01:15:33;;;;;;;29.10;5.75;;;7.40;99.90;;;;;;5100383;28;20491;-72
2023/05/26 01:18:29;;;;;;;27.55;4.68;;;7.40;99.90;;;;;;5098479;28;20115;-73
2023/05/26 01:21:05;;;;;;;25.52;5.15;;;7.40;99.90;;;;;;5078156;28;20487;-76
2023/05/26 01:23:58;;;;;;;30.17;5.57;;;7.40;99.90;;;;;;5097900;28;20039;-70
2023/05/26 01:26:48;;;;;;;23.55;5.88;;;7.40;99.90;;;;;;5098071;28;20051;-68
2023/05/26 01:29:20;;;;;;;33.75;5.35;;;7.40;99.90;;;;;;5089525;28;20044;-71
2023/05/26 01:31:45;;;;;;;29.92;5.22;;;7.40;99.90;;;;;;5071264;28;20040;-72
2023/05/26 01:34:11;;;;;;;21.95;4.72;;;7.50;99.90;;;;;;5079495;28;20475;-71
2023/05/26 01:36:37;;;;;;;36.72;5.20;;;7.40;99.90;;;;;;5097129;28;20044;-70
2023/05/26 01:39:07;;;;;;;28.23;4.97;;;7.70;99.90;;;;;;5098422;28;20036;-70
2023/05/26 01:41:56;;;;;;;34.58;5.88;;;7.40;99.90;;;;;;5082728;28;20048;-69
2023/05/26 01:45:01;;;;;;;23.63;4.53;;;7.40;99.90;;;;;;5091360;28;20039;-71
2023/05/26 01:47:30;;;;;;;27.40;4.72;;;7.80;99.90;;;;;;5035046;28;20061;-69
2023/05/26 01:50:01;;;;;;;30.92;5.00;;;7.40;99.90;;;;;;5040924;28;20084;-69
2023/05/26 01:52:27;;;;;;;23.38;4.85;;;7.40;99.90;;;;;;5029676;28;20092;-69
2023/05/26 01:55:01;;;;;;;33.58;5.75;;;7.40;99.90;;;;;;5038215;28;20057;-70
2023/05/26 01:57:28;;;;;;;32.53;5.28;;;7.40;99.90;;;;;;5033669;28;20087;-70
2023/05/26 01:59:55;;;;;;;30.02;4.82;;;7.40;99.90;;;;;;5041542;28;20158;-70
2023/05/26 02:02:21;;;;;;;28.98;4.97;;;7.40;99.90;;;;;;5026714;28;20059;-70
2023/05/26 02:04:46;;;;;;;23.67;4.07;;;7.40;99.90;;;;;;5036723;28;20136;-70
2023/05/26 02:07:12;;;;;;;27.20;4.60;;;7.30;99.90;;;;;;5038046;28;20527;-71
2023/05/26 02:09:38;;;;;;;16.38;3.88;;;7.30;99.90;;;;;;5037797;28;20140;-71
2023/05/26 02:12:06;;;;;;;30.30;4.55;;;7.30;99.90;;;;;;5031493;28;20045;-72
2023/05/26 02:14:32;;;;;;;44.08;5.82;;;7.30;99.90;;;;;;5028417;28;20045;-72
2023/05/26 02:16:57;;;;;;;34.40;5.65;;;7.30;99.90;;;;;;5033801;28;20439;-70
2023/05/26 02:19:25;;;;;;;26.05;4.45;;;7.30;99.90;;;;;;5029113;28;20049;-71
2023/05/26 02:21:50;;;;;;;32.42;4.63;;;7.30;99.90;;;;;;5029595;28;20076;-71
2023/05/26 02:24:17;;;;;;;23.30;4.38;;;7.30;99.90;;;;;;5063170;28;20091;-70
2023/05/26 02:26:42;;;;;;;24.83;4.18;;;7.40;99.90;;;;;;5091364;28;20035;-72
2023/05/26 02:29:08;;;;;;;35.10;5.50;;;7.20;99.90;;;;;;5097430;28;20070;-71
2023/05/26 02:31:34;;;;;;;31.17;5.35;;;7.20;99.90;;;;;;5104238;28;20047;-71
2023/05/26 02:34:01;;;;;;;22.23;4.45;;;7.10;99.90;;;;;;5100999;28;20050;-71
2023/05/26 02:36:27;;;;;;;30.65;4.88;;;7.10;99.90;;;;;;5098612;28;20091;-75
2023/05/26 02:38:53;;;;;;;25.00;4.28;;;7.10;99.90;;;;;;5096853;28;20034;-74
2023/05/26 02:41:18;;;;;;;25.33;5.10;;;7.80;99.90;;;;;;5100204;28;20719;-74
2023/05/26 02:43:44;;;;;;;28.20;5.95;;;7.20;99.90;;;;;;5099873;28;20040;-74
2023/05/26 02:46:10;;;;;;;33.70;4.50;;;7.00;99.90;;;;;;5091556;28;20036;-72
2023/05/26 02:48:35;;;;;;;32.25;4.18;;;6.90;99.90;;;;;;5100545;28;20043;-71
2023/05/26 02:51:01;;;;;;;28.30;4.65;;;6.80;99.90;;;;;;5100635;28;20090;-71
2023/05/26 02:53:27;;;;;;;23.38;4.82;;;7.00;99.90;;;;;;5103818;28;20634;-73
2023/05/26 02:55:52;;;;;;;22.77;4.93;;;6.80;99.90;;;;;;5081951;28;20044;-73
2023/05/26 02:58:19;;;;;;;20.90;4.32;;;6.70;99.90;;;;;;5099713;28;20473;-71
2023/05/26 03:00:45;;;;;;;24.60;4.47;;;6.70;99.90;;;;;;5100066;28;20426;-72
2023/05/26 03:03:11;;;;;;;29.15;5.15;;;6.60;99.90;;;;;;5082250;28;20102;-74
2023/05/26 03:05:37;;;;;;;20.70;3.85;;;6.60;99.90;;;;;;5098932;28;20075;-70
2023/05/26 03:08:03;;;;;;;28.45;4.75;;;6.60;99.90;;;;;;5100034;28;20058;-72
2023/05/26 03:10:29;;;;;;;28.00;4.47;;;6.50;99.90;;;;;;5094007;28;20047;-71
2023/05/26 03:12:55;;;;;;;26.05;4.50;;;6.40;99.90;;;;;;5096286;28;20043;-70
2023/05/26 03:15:22;;;;;;;28.13;3.95;;;6.40;99.90;;;;;;5079307;28;20055;-72
2023/05/26 03:17:47;;;;;;;30.63;5.30;;;6.40;99.90;;;;;;5080892;28;20118;-75
2023/05/26 03:20:13;;;;;;;31.90;5.13;;;6.30;99.90;;;;;;5098018;28;20123;-71
2023/05/26 03:22:38;;;;;;;18.73;3.80;;;6.30;99.90;;;;;;5082962;28;20052;-71
2023/05/26 03:25:05;;;;;;;20.50;3.90;;;6.30;99.90;;;;;;5081685;28;20138;-70
2023/05/26 03:27:31;;;;;;;18.95;4.32;;;6.20;99.90;;;;;;5099096;28;20514;-71
2023/05/26 03:29:57;;;;;;;27.60;4.70;;;6.40;99.90;;;;;;5099371;28;20055;-72
2023/05/26 03:32:22;;;;;;;31.65;4.60;;;6.20;99.90;;;;;;5099463;28;20048;-73
2023/05/26 03:34:48;;;;;;;25.77;4.70;;;6.20;99.90;;;;;;5100746;28;20559;-71
2023/05/26 03:37:15;;;;;;;28.98;4.80;;;6.10;99.90;;;;;;5102582;28;20036;-74
2023/05/26 03:39:41;;;;;;;27.90;4.40;;;6.10;99.90;;;;;;5093547;28;20120;-73
2023/05/26 03:42:08;;;;;;;23.92;4.65;;;6.10;99.90;;;;;;5098090;28;20071;-71
2023/05/26 03:44:34;;;;;;;24.80;4.47;;;6.10;99.90;;;;;;5096856;28;20069;-72
2023/05/26 03:47:00;;;;;;;22.90;3.33;;;6.10;99.90;;;;;;5081678;28;20044;-76
2023/05/26 03:49:26;;;;;;;18.77;4.38;;;6.00;99.90;;;;;;5097371;28;20399;-71
2023/05/26 03:51:51;;;;;;;23.30;4.75;;;6.00;99.90;;;;;;5099129;28;20496;-72
2023/05/26 03:54:17;;;;;;;25.33;3.97;;;6.00;99.90;;;;;;5098985;28;20817;-71
2023/05/26 03:56:42;;;;;;;25.70;4.63;;;6.30;99.90;;;;;;5099070;28;20039;-71
2023/05/26 03:59:08;;;;;;;22.58;4.07;;;6.30;99.90;;;;;;5098219;28;20055;-71
2023/05/26 04:01:36;;;;;;;23.02;4.43;;;6.00;99.90;;;;;;5098428;28;20056;-72
2023/05/26 04:04:02;;;;;;;29.73;4.80;;;6.00;99.90;;;;;;5098792;28;20052;-75
2023/05/26 04:06:28;;;;;;;28.17;4.78;;;6.00;99.90;;;;;;5101347;28;20044;-74
2023/05/26 04:08:54;;;;;;;20.42;4.18;;;6.00;99.90;;;;;;5098612;28;20100;-69
2023/05/26 04:11:21;;;;;;;26.52;3.97;;;6.00;99.90;;;;;;5090015;28;20040;-71
2023/05/26 04:13:46;;;;;;;22.00;4.20;;;6.00;99.90;;;;;;5089252;28;21722;-71
2023/05/26 04:16:12;;;;;;;22.77;4.22;;;6.00;99.90;;;;;;5097278;28;20040;-71
2023/05/26 04:18:40;;;;;;;26.05;5.50;;;6.00;99.90;;;;;;5089420;28;20123;-74
2023/05/26 04:21:05;;;;;;;26.77;4.05;;;6.00;99.90;;;;;;5080417;28;20523;-78
2023/05/26 04:23:31;;;;;;;20.65;4.60;;;6.10;99.90;;;;;;5080878;28;20097;-69
2023/05/26 04:25:57;;;;;;;23.17;4.35;;;6.10;99.90;;;;;;5098462;28;20127;-71
2023/05/26 04:28:24;;;;;;;26.65;4.82;;;6.10;99.90;;;;;;5080154;28;20044;-73
2023/05/26 04:30:50;;;;;;;28.98;5.15;;;6.20;99.90;;;;;;5073254;28;20169;-73
2023/05/26 04:33:15;;;;;;;31.00;4.65;;;6.20;99.90;;;;;;5089705;28;20570;-72
2023/05/26 04:35:44;;;;;;;30.80;5.07;;;6.30;99.90;;;;;;5097894;28;20043;-71
2023/05/26 04:38:12;;;;;;;28.60;5.10;;;6.40;99.90;;;;;;5078952;28;20048;-76
2023/05/26 04:40:42;;;;;;;28.50;4.88;;;6.50;99.90;;;;;;5097822;28;20126;-74
2023/05/26 04:43:08;;;;;;;23.10;5.10;;;6.50;99.90;;;;;;5081178;28;20064;-73
2023/05/26 04:45:37;;;;;;;32.10;5.40;;;6.70;99.90;;;;;;5089862;28;20066;-74
2023/05/26 04:48:05;;;;;;;22.85;4.70;;;6.70;99.90;;;;;;5093654;28;20411;-72
2023/05/26 04:50:32;;;;;;;34.13;6.00;;;6.80;99.90;;;;;;5079434;28;20571;-75
2023/05/26 04:52:59;;;;;;;25.80;5.50;;;7.00;99.90;;;;;;5079633;28;20132;-73
2023/05/26 04:55:25;;;;;;;27.73;5.10;;;7.10;99.90;;;;;;5098397;28;20051;-79
2023/05/26 04:57:51;;;;;;;29.60;4.30;;;7.10;99.90;;;;;;5096497;28;20063;-70
2023/05/26 05:00:17;;;;;;;20.00;4.47;;;7.30;99.90;;;;;;5099328;28;20044;-77
2023/05/26 05:02:42;;;;;;;26.42;5.13;;;7.40;99.90;;;;;;5098189;28;20040;-74
2023/05/26 05:05:09;;;;;;;27.83;5.45;;;7.50;99.90;;;;;;5097307;28;20048;-70
2023/05/26 05:07:34;;;;;;;23.70;5.18;;;7.60;99.90;;;;;;5097384;28;20060;-70
2023/05/26 05:10:00;;;;;;;38.10;5.07;;;7.70;99.90;;;;;;5097924;28;20047;-70
2023/05/26 05:12:26;;;;;;;35.17;4.90;;;7.80;99.90;;;;;;5088785;28;20097;-70
2023/05/26 05:14:51;;;;;;;31.08;5.03;;;7.90;99.90;;;;;;5093906;28;20487;-70
2023/05/26 05:17:18;;;;;;;30.23;6.10;;;8.00;99.90;;;;;;5097859;28;20071;-70
2023/05/26 05:19:43;;;;;;;28.05;5.25;;;8.20;99.90;;;;;;5101928;28;20047;-70
2023/05/26 05:22:09;;;;;;;34.10;6.00;;;8.30;99.90;;;;;;5101851;28;20044;-70
2023/05/26 05:24:34;;;;;;;31.63;4.93;;;8.50;99.90;;;;;;5097705;28;20054;-70
2023/05/26 05:27:01;;;;;;;29.25;6.25;;;8.60;99.90;;;;;;5102196;28;20126;-70
2023/05/26 05:29:27;;;;;;;30.13;4.93;;;8.70;99.90;;;;;;5093152;28;20055;-70
2023/05/26 05:31:52;;;;;;;26.63;4.60;;;8.80;99.90;;;;;;5104213;28;20040;-71
2023/05/26 05:34:18;;;;;;;29.95;4.90;;;8.90;99.90;;;;;;5104922;28;20381;-72
2023/05/26 05:36:44;;;;;;;38.22;6.10;;;9.00;99.90;;;;;;5103288;28;20050;-71
2023/05/26 05:39:10;;;;;;;30.73;4.50;;;9.20;99.90;;;;;;5096352;28;20093;-73
2023/05/26 05:41:35;;;;;;;26.98;5.05;;;9.40;99.90;;;;;;5101923;28;20510;-71
2023/05/26 05:44:02;;;;;;;36.33;5.35;;;9.40;99.90;;;;;;5096413;28;20042;-73
2023/05/26 05:46:28;;;;;;;27.90;5.35;;;9.50;99.90;;;;;;5099944;28;20122;-74
2023/05/26 05:48:53;;;;;;;28.98;4.22;;;9.70;99.90;;;;;;5099477;28;20139;-74
2023/05/26 05:51:19;;;;;;;26.25;4.80;;;9.80;99.90;;;;;;5096555;28;20036;-70
2023/05/26 05:53:45;;;;;;;32.00;4.47;;;10.40;99.90;;;;;;5100757;28;20047;-71
2023/05/26 05:56:10;;;;;;;25.38;4.53;;;10.10;99.90;;;;;;5103113;28;20083;-72
2023/05/26 05:58:36;;;;;;;33.13;4.82;;;10.30;99.90;;;;;;5101599;28;20052;-71
2023/05/26 06:01:02;;;;;;;30.40;5.45;;;10.40;99.90;;;;;;5094674;28;20094;-71
2023/05/26 06:03:27;;;;;;;27.10;5.13;;;10.40;99.90;;;;;;5087358;28;20040;-73
2023/05/26 06:05:53;;;;;;;30.70;5.05;;;10.50;99.90;;;;;;5105197;28;20117;-71
2023/05/26 06:08:19;;;;;;;28.73;6.15;;;10.70;99.90;;;;;;5096106;28;20040;-73
2023/05/26 06:10:45;;;;;;;29.75;4.60;;;10.80;99.90;;;;;;5099588;28;20048;-71
2023/05/26 06:13:10;;;;;;;24.88;4.65;;;10.90;99.90;;;;;;5092552;28;20048;-74
2023/05/26 06:15:36;;;;;;;34.33;5.38;;;11.00;99.90;;;;;;5103716;28;20058;-69
2023/05/26 06:18:01;;;;;;;34.03;5.07;;;11.20;99.90;;;;;;5103911;28;20051;-72
2023/05/26 06:20:27;;;;;;;25.92;4.47;;;11.10;99.90;;;;;;5082235;28;20534;-72
2023/05/26 06:22:53;;;;;;;23.02;4.53;;;11.20;99.90;;;;;;5096148;28;20039;-70
2023/05/26 06:25:19;;;;;;;23.67;4.70;;;11.30;99.90;;;;;;5096795;28;20065;-71
2023/05/26 06:27:44;;;;;;;28.48;5.10;;;11.70;99.90;;;;;;5082598;28;20135;-74
2023/05/26 06:30:10;;;;;;;26.65;4.25;;;11.50;99.90;;;;;;5082310;28;20078;-70
2023/05/26 06:32:36;;;;;;;33.38;4.55;;;11.60;99.90;;;;;;5091570;28;20059;-75
2023/05/26 06:35:02;;;;;;;26.27;4.20;;;11.60;99.90;;;;;;5100423;28;20052;-72
2023/05/26 06:37:28;;;;;;;24.15;5.15;;;11.80;99.90;;;;;;5100598;28;20399;-71
2023/05/26 06:39:53;;;;;;;19.58;4.32;;;11.90;99.90;;;;;;5100146;28;20174;-70
2023/05/26 06:42:19;;;;;;;27.65;3.78;;;12.00;99.90;;;;;;5091569;28;20066;-70
2023/05/26 06:44:44;;;;;;;24.73;4.05;;;12.30;99.90;;;;;;5097445;28;21694;-71
2023/05/26 06:47:10;;;;;;;29.27;4.18;;;12.30;99.90;;;;;;5082003;28;20074;-72
2023/05/26 06:49:36;;;;;;;26.33;5.05;;;12.60;99.90;;;;;;5100147;28;20116;-75
2023/05/26 06:52:01;;;;;;;23.88;4.20;;;12.60;99.90;;;;;;5082353;28;20047;-71
2023/05/26 06:54:27;;;;;;;28.83;4.90;;;12.70;99.90;;;;;;5099025;28;20169;-70
2023/05/26 06:56:53;;;;;;;20.77;4.22;;;12.80;99.90;;;;;;5081747;28;20075;-70
2023/05/26 06:59:18;;;;;;;24.98;3.97;;;13.00;99.90;;;;;;5102780;28;20054;-71
2023/05/26 07:01:44;;;;;;;19.67;4.60;;;13.20;99.90;;;;;;5090613;28;20166;-74
2023/05/26 07:04:10;;;;;;;21.30;4.15;;;13.40;99.90;;;;;;5075921;28;20151;-73
2023/05/26 07:06:36;;;;;;;17.17;3.65;;;13.50;99.90;;;;;;5099109;28;20059;-72
2023/05/26 07:09:01;;;;;;;17.10;3.05;;;13.70;99.90;;;;;;5099509;28;20060;-71
2023/05/26 07:11:27;;;;;;;20.92;5.22;;;13.80;99.90;;;;;;5093935;28;20410;-74
2023/05/26 07:13:53;;;;;;;23.63;3.67;;;13.90;99.90;;;;;;5093585;28;20040;-70
2023/05/26 07:16:19;;;;;;;19.50;3.97;;;14.10;99.90;;;;;;5100378;28;20047;-71
2023/05/26 07:18:44;;;;;;;28.75;3.97;;;14.20;99.90;;;;;;5093929;28;20035;-70
2023/05/26 07:21:10;;;;;;;12.85;2.60;;;14.40;99.90;;;;;;5099746;28;20134;-70
2023/05/26 07:23:35;;;;;;;24.90;3.60;;;14.40;99.90;;;;;;5082661;28;20198;-69
2023/05/26 07:26:01;;;;;;;17.08;3.58;;;14.50;99.90;;;;;;5102704;28;20071;-70
2023/05/26 07:28:27;;;;;;;20.45;4.88;;;14.60;99.90;;;;;;5102943;28;20478;-70
2023/05/26 07:30:52;;;;;;;27.13;4.80;;;14.70;99.90;;;;;;5074930;28;20043;-72
2023/05/26 07:33:18;;;;;;;17.45;3.20;;;14.80;99.90;;;;;;5081070;28;20453;-71
2023/05/26 07:35:45;;;;;;;24.05;3.45;;;14.90;99.90;;;;;;5100128;28;20388;-72
2023/05/26 07:38:10;;;;;;;19.33;3.58;;;15.00;99.90;;;;;;5103008;28;20398;-71
2023/05/26 07:40:36;;;;;;;13.35;3.42;;;15.00;99.90;;;;;;5102476;28;20039;-70
2023/05/26 07:43:03;;;;;;;21.02;3.60;;;15.10;99.90;;;;;;5100095;28;20087;-69
2023/05/26 07:45:31;;;;;;;20.38;3.28;;;15.30;99.90;;;;;;5078236;28;20059;-77
2023/05/26 07:47:57;;;;;;;18.30;3.63;;;15.20;99.90;;;;;;5086041;28;20402;-72
2023/05/26 07:50:23;;;;;;;15.00;3.45;;;15.30;99.90;;;;;;5089495;28;20044;-70
2023/05/26 07:52:48;;;;;;;16.75;3.45;;;15.40;99.90;;;;;;5091148;28;20040;-70
2023/05/26 07:55:14;;;;;;;14.85;3.17;;;15.60;99.90;;;;;;5099118;28;20077;-72
2023/05/26 07:57:39;;;;;;;15.98;3.35;;;15.50;99.90;;;;;;5094002;28;20035;-72
2023/05/26 08:00:06;;;;;;;14.60;3.10;;;15.80;99.90;;;;;;5101964;28;20047;-70
2023/05/26 08:02:32;;;;;;;14.00;3.13;;;15.70;99.90;;;;;;5099143;28;20055;-71
2023/05/26 08:04:57;;;;;;;15.95;3.08;;;15.80;99.90;;;;;;5095058;28;20040;-71
2023/05/26 08:07:23;;;;;;;16.08;3.42;;;16.00;99.90;;;;;;5092011;28;20844;-71
2023/05/26 08:09:49;;;;;;;20.42;3.67;;;16.00;99.90;;;;;;5098653;28;20118;-72
2023/05/26 08:12:14;;;;;;;18.10;3.33;;;16.10;99.90;;;;;;5089246;28;20040;-71
2023/05/26 08:14:40;;;;;;;21.02;3.80;;;16.20;99.90;;;;;;5080521;28;20925;-71
2023/05/26 08:17:06;;;;;;;25.90;3.45;;;16.20;99.90;;;;;;5080381;28;20050;-72
2023/05/26 08:19:31;;;;;;;17.95;3.47;;;16.30;99.90;;;;;;5100561;28;20040;-72
2023/05/26 08:21:57;;;;;;;14.05;2.97;;;16.40;99.90;;;;;;5101731;28;20044;-72
2023/05/26 08:24:24;;;;;;;19.05;3.70;;;16.30;99.90;;;;;;5080223;28;20060;-71
2023/05/26 08:26:50;;;;;;;14.57;3.00;;;16.50;99.90;;;;;;5085072;28;20035;-71
2023/05/26 08:29:16;;;;;;;16.52;3.40;;;16.50;99.90;;;;;;5101730;28;20048;-71
2023/05/26 08:31:42;;;;;;;18.02;3.28;;;16.70;99.90;;;;;;5100371;28;20050;-71
2023/05/26 08:34:08;;;;;;;21.15;3.35;;;17.00;99.90;;;;;;5098742;28;20063;-72
2023/05/26 08:36:35;;;;;;;21.50;2.92;;;17.00;99.90;;;;;;5098421;28;20574;-73
2023/05/26 08:39:00;;;;;;;16.60;3.70;;;16.90;99.90;;;;;;5082789;28;20046;-72
2023/05/26 08:41:35;;;;;;;14.70;2.85;;;17.00;99.90;;;;;;5101624;28;20442;-73
2023/05/26 08:44:03;;;;;;;25.17;3.72;;;17.10;99.90;;;;;;5098947;28;20047;-72
2023/05/26 08:46:32;;;;;;;14.48;3.03;;;17.20;99.90;;;;;;5098826;28;20055;-71
2023/05/26 08:48:58;;;;;;;16.45;3.20;;;17.20;99.80;;;;;;5088591;28;20499;-71
2023/05/26 08:51:24;;;;;;;17.15;3.47;;;17.20;99.90;;;;;;5095326;28;20047;-73
2023/05/26 08:53:50;;;;;;;18.98;3.17;;;17.40;99.90;;;;;;5101202;28;20039;-74
2023/05/26 08:56:16;;;;;;;16.15;3.42;;;17.60;99.90;;;;;;5074955;28;20054;-73
2023/05/26 08:58:43;;;;;;;12.77;2.70;;;17.60;99.90;;;;;;5079305;28;20043;-74
2023/05/26 09:01:09;;;;;;;15.90;2.78;;;17.70;99.90;;;;;;5099473;28;20097;-72
2023/05/26 09:03:35;;;;;;;16.85;2.78;;;17.70;99.90;;;;;;5097901;28;20046;-74
2023/05/26 09:06:01;;;;;;;13.45;3.00;;;17.90;99.90;;;;;;5093716;28;20043;-75
2023/05/26 09:08:27;;;;;;;18.73;2.67;;;18.00;98.80;;;;;;5082181;28;20220;-72
2023/05/26 09:10:53;;;;;;;15.02;3.08;;;18.00;99.90;;;;;;5101497;28;20088;-71
2023/05/26 09:13:20;;;;;;;16.50;3.05;;;18.20;99.80;;;;;;5096240;28;20040;-73
2023/05/26 09:15:51;;;;;;;16.23;3.13;;;18.30;99.90;;;;;;5098040;28;20044;-71
2023/05/26 09:18:18;;;;;;;19.67;3.42;;;18.40;98.50;;;;;;5098239;28;20048;-74
2023/05/26 09:20:49;;;;;;;17.45;3.03;;;18.50;99.00;;;;;;5084968;28;20032;-74
2023/05/26 09:23:21;;;;;;;13.77;3.08;;;18.50;98.60;;;;;;5101179;28;20039;-74
2023/05/26 09:25:50;;;;;;;21.27;3.45;;;18.50;97.60;;;;;;5097805;28;20036;-72
2023/05/26 09:28:16;;;;;;;20.60;3.80;;;18.50;98.20;;;;;;5098132;28;20063;-75
2023/05/26 09:30:44;;;;;;;19.83;3.35;;;18.40;98.80;;;;;;5099812;28;20063;-72
2023/05/26 09:33:12;;;;;;;17.75;3.58;;;18.30;98.20;;;;;;5092917;28;20043;-75
2023/05/26 09:35:45;;;;;;;12.07;3.03;;;18.40;98.40;;;;;;5094368;28;20530;-72
2023/05/26 09:38:14;;;;;;;13.30;3.25;;;18.40;98.60;;;;;;5089499;28;20044;-73
2023/05/26 09:40:41;;;;;;;20.55;3.22;;;18.60;98.40;;;;;;5097734;28;20172;-72
2023/05/26 09:43:07;;;;;;;17.13;3.63;;;18.80;98.50;;;;;;5097964;28;20060;-71
2023/05/26 09:45:35;;;;;;;14.98;3.30;;;19.00;98.10;;;;;;5087063;28;20051;-73
2023/05/26 09:48:02;;;;;;;14.77;3.92;;;19.00;98.40;;;;;;5093419;28;20360;-75
2023/05/26 09:50:32;;;;;;;14.98;3.22;;;18.90;98.10;;;;;;5097572;28;20165;-72
2023/05/26 09:52:59;;;;;;;14.05;3.33;;;19.00;97.60;;;;;;5097635;28;20044;-73
2023/05/26 09:55:25;;;;;;;20.52;3.92;;;19.00;97.80;;;;;;5091042;28;20499;-72
2023/05/26 09:57:52;;;;;;;18.05;3.90;;;18.70;97.80;;;;;;5097740;28;20051;-71
2023/05/26 10:00:19;;;;;;;15.55;3.03;;;18.90;97.70;;;;;;5101517;28;20108;-72
2023/05/26 10:02:46;;;;;;;14.45;3.10;;;19.00;97.90;;;;;;5104841;28;20040;-72
2023/05/26 10:05:13;;;;;;;12.70;3.20;;;19.10;97.50;;;;;;5099290;28;20122;-71
2023/05/26 10:07:41;;;;;;;19.38;3.60;;;19.30;97.70;;;;;;5101602;28;20118;-73
2023/05/26 10:10:09;;;;;;;20.38;3.38;;;19.50;97.30;;;;;;5097916;28;20052;-77
2023/05/26 10:12:35;;;;;;;17.85;3.50;;;19.20;96.60;;;;;;5100428;28;20043;-74
2023/05/26 10:15:03;;;;;;;18.17;4.20;;;19.30;97.50;;;;;;5104759;28;20035;-73
2023/05/26 10:17:29;;;;;;;16.42;3.90;;;19.50;97.30;;;;;;5093794;28;20072;-76
2023/05/26 10:19:57;;;;;;;18.38;4.20;;;19.60;98.10;;;;;;5083252;28;20516;-72
2023/05/26 10:22:50;;;;;;;16.50;3.20;;;19.60;97.20;;;;;;5100395;28;20036;-77
2023/05/26 10:25:57;;;;;;;14.80;3.10;;;19.70;95.80;;;;;;5105132;28;20052;-72
2023/05/26 10:28:29;;;;;;;14.07;3.22;;;19.50;96.70;;;;;;5070123;28;20125;-75
2023/05/26 10:31:03;;;;;;;18.58;3.45;;;19.70;96.80;;;;;;5094756;28;20077;-75
2023/05/26 10:33:40;;;;;;;13.63;3.15;;;19.60;96.60;;;;;;5079184;28;20429;-73
2023/05/26 10:36:08;;;;;;;17.52;3.15;;;19.80;96.80;;;;;;5100646;28;20518;-73
2023/05/26 10:38:38;;;;;;;17.35;3.53;;;19.80;97.30;;;;;;5096526;28;20048;-75
2023/05/26 10:41:14;;;;;;;16.30;3.38;;;19.80;97.10;;;;;;5087181;28;20137;-73
2023/05/26 10:43:42;;;;;;;21.13;4.35;;;19.60;96.60;;;;;;5103422;28;20044;-73
2023/05/26 10:46:08;;;;;;;18.42;3.45;;;19.70;97.10;;;;;;5087100;28;20569;-72
2023/05/26 10:48:35;;;;;;;15.63;3.58;;;19.90;97.30;;;;;;5096509;28;20171;-73
2023/05/26 10:51:28;;;;;;;18.65;3.50;;;19.90;97.20;;;;;;5082216;28;20122;-73
2023/05/26 10:53:56;;;;;;;17.65;3.63;;;20.00;96.40;;;;;;5094730;28;20047;-73
2023/05/26 10:56:37;;;;;;;16.48;4.00;;;20.10;97.30;;;;;;5097689;28;20043;-72
2023/05/26 10:59:03;;;;;;;16.02;3.50;;;20.30;97.30;;;;;;5091129;28;20075;-72
2023/05/26 11:01:31;;;;;;;16.95;3.75;;;20.30;97.10;;;;;;5100388;28;20113;-75
2023/05/26 11:04:04;;;;;;;14.60;3.10;;;20.20;96.50;;;;;;5097795;28;20101;-72
2023/05/26 11:06:50;;;;;;;12.52;3.40;;;20.10;96.60;;;;;;5083229;28;20047;-72
2023/05/26 11:09:20;;;;;;;17.52;3.58;;;20.30;96.80;;;;;;5101468;28;20051;-74
2023/05/26 11:11:57;;;;;;;14.35;3.42;;;20.20;96.90;;;;;;5102607;28;20040;-73
2023/05/26 11:14:29;;;;;;;15.80;3.40;;;20.20;96.80;;;;;;5101586;28;20047;-73
2023/05/26 11:17:00;;;;;;;13.32;3.08;;;20.30;96.40;;;;;;5099969;28;20085;-72
2023/05/26 11:19:28;;;;;;;15.55;3.30;;;20.10;96.60;;;;;;5099247;28;20170;-74
2023/05/26 11:21:54;;;;;;;15.55;3.08;;;20.00;96.20;;;;;;5093805;28;20553;-75
2023/05/26 11:24:21;;;;;;;18.77;3.45;;;20.20;96.10;;;;;;5100106;28;20556;-74
2023/05/26 11:26:48;;;;;;;16.58;3.60;;;19.90;95.80;;;;;;5086241;28;20047;-74
2023/05/26 11:29:13;;;;;;;13.85;3.42;;;20.10;96.60;;;;;;5100334;28;20386;-75
2023/05/26 11:31:39;;;;;;;18.77;3.88;;;20.10;96.00;;;;;;5081055;28;20060;-73
2023/05/26 11:34:05;;;;;;;12.25;3.00;;;20.20;96.20;;;;;;5095602;28;20050;-74
2023/05/26 11:36:31;;;;;;;18.25;3.53;;;20.10;96.00;;;;;;5102967;28;20101;-75
2023/05/26 11:39:01;;;;;;;17.38;3.40;;;20.40;96.30;;;;;;5099768;28;20672;-74
2023/05/26 11:41:28;;;;;;;16.85;3.42;;;20.40;96.10;;;;;;5091161;28;20048;-75
2023/05/26 11:43:56;;;;;;;21.25;4.15;;;20.20;96.10;;;;;;5099892;28;20417;-74
2023/05/26 11:46:22;;;;;;;13.73;3.53;;;20.40;95.90;;;;;;5096271;28;20070;-76
2023/05/26 11:48:48;;;;;;;12.15;3.15;;;20.40;95.40;;;;;;5101564;28;20039;-73
2023/05/26 11:51:17;;;;;;;16.25;3.80;;;20.40;95.40;;;;;;5096173;28;20028;-76
2023/05/26 11:53:45;;;;;;;12.70;3.03;;;20.40;95.10;;;;;;5097921;28;20067;-74
2023/05/26 11:56:15;;;;;;;19.05;3.58;;;20.40;94.70;;;;;;5099199;28;20125;-74
2023/05/26 11:58:46;;;;;;;12.60;3.42;;;20.20;94.30;;;;;;5096684;28;20176;-73
2023/05/26 12:01:12;;;;;;;16.98;3.28;;;20.20;95.20;;;;;;5091109;28;20052;-74
2023/05/26 12:03:41;;;;;;;15.90;3.67;;;20.40;95.20;;;;;;5099210;28;20536;-75
2023/05/26 12:06:14;;;;;;;20.50;3.53;;;20.40;95.40;;;;;;5100098;28;20051;-73
2023/05/26 12:08:44;;;;;;;14.25;3.35;;;20.50;95.00;;;;;;5102226;28;20036;-76
2023/05/26 12:11:21;;;;;;;15.43;3.92;;;20.50;95.30;;;;;;5098718;28;20080;-74
2023/05/26 12:14:05;;;;;;;15.13;3.08;;;20.60;94.70;;;;;;5098449;28;20044;-74
2023/05/26 12:16:32;;;;;;;15.93;3.03;;;20.50;94.40;;;;;;5101444;28;20047;-76
2023/05/26 12:19:02;;;;;;;22.95;3.88;;;20.30;94.40;;;;;;5101968;28;20406;-73
2023/05/26 12:21:29;;;;;;;13.40;3.17;;;20.30;94.80;;;;;;5100204;28;20525;-76
2023/05/26 12:23:56;;;;;;;12.13;3.10;;;20.30;94.90;;;;;;5093981;28;20035;-75
2023/05/26 12:26:29;;;;;;;19.75;3.10;;;20.30;94.90;;;;;;5101706;28;20054;-75
2023/05/26 12:29:07;;;;;;;15.98;3.38;;;20.20;94.30;;;;;;5091133;28;20372;-74
2023/05/26 12:31:39;;;;;;;16.75;3.80;;;20.30;94.80;;;;;;5099207;28;20048;-73
2023/05/26 12:34:06;;;;;;;14.77;3.83;;;20.30;94.60;;;;;;5098990;28;20047;-75
2023/05/26 12:36:32;;;;;;;19.17;3.88;;;20.40;94.50;;;;;;5093387;28;20039;-75
2023/05/26 12:38:58;;;;;;;15.65;3.85;;;20.30;94.60;;;;;;5098357;28;20113;-75
2023/05/26 12:41:23;;;;;;;15.43;3.38;;;20.30;94.80;;;;;;5080584;28;20496;-75
2023/05/26 12:43:49;;;;;;;15.20;3.45;;;20.30;94.50;;;;;;5091115;28;20048;-72